Axis, Alabama
Current Conditions -  °F | °C
As of 3:53 AM on Friday 31 Oct 2014 (Local Time) from KBFM Reporting Station
Clear Clear  
Wind Chill: 51°   Ceiling: Unl
Heat Index: 51°   Visibility: 10mi
Dew Point: 40°   Wind: 7mph
Humidity: 66%   Direction: 310°NW
Pressure: 30.02"   Gusts: NA
Location:  30.93°N, 88.03°W
Report Text: KBFM 310853Z 31006KT 10SM CLR 11/04 A3002 RMK AO2 SLP166 T01060044 58006
Loading
Personal Weather Stations






























Interactive Weather Map
Tropical Storm Tracking
New forecast layout! Learn more

10-Day Weather Forecast

Advertisements
Track Severe Weather on mobile